Time,TemperatureF,DewpointF,PressureIn,WindDirection,WindDirectionDegrees,WindSpeedMPH,WindSpeedGustMPH,Humidity,HourlyPrecipIn,Conditions,Clouds,dailyrainin,SolarRadiationWatts/m^2,SoftwareType,DateUTC
2013-03-11 00:00:00,64.8,63.6,30.07,WSW,242,2.0,3.0,96,0.00,,,0.00,0,Wunderground v.1.15,2013-03-11 10:00:00,
2013-03-11 00:10:00,64.3,63.1,30.07,WSW,242,2.0,3.0,96,0.00,,,0.00,0,Wunderground v.1.15,2013-03-11 10:10:00,
2013-03-11 00:15:00,64.1,62.9,30.07,WSW,242,2.0,3.0,96,0.00,,,0.00,0,Wunderground v.1.15,2013-03-11 10:15:00,
2013-03-11 00:20:00,64.0,63.1,30.07,WSW,242,2.0,2.0,97,0.00,,,0.00,0,Wunderground v.1.15,2013-03-11 10:20:00,
2013-03-11 00:25:00,63.8,62.9,30.07,WSW,242,2.0,2.0,97,0.00,,,0.00,0,Wunderground v.1.15,2013-03-11 10:25:00,
2013-03-11 00:35:00,63.7,62.5,30.07,WSW,242,2.0,2.0,96,0.00,,,0.00,0,Wunderground v.1.15,2013-03-11 10:35:00,
2013-03-11 00:40:00,63.7,62.5,30.07,WSW,242,2.0,3.0,96,0.00,,,0.00,0,Wunderground v.1.15,2013-03-11 10:40:00,
2013-03-11 00:45:00,63.6,62.4,30.07,WSW,242,2.0,3.0,96,0.00,,,0.00,0,Wunderground v.1.15,2013-03-11 10:45:00,
2013-03-11 00:50:00,63.7,62.5,30.07,WSW,242,2.0,2.0,96,0.00,,,0.00,0,Wunderground v.1.15,2013-03-11 10:50:00,
2013-03-11 01:00:00,63.9,62.4,30.06,WSW,242,2.0,3.0,95,0.00,,,0.00,0,Wunderground v.1.15,2013-03-11 11:00:00,
2013-03-11 01:10:00,64.2,62.4,30.06,WSW,242,1.0,1.0,94,0.00,,,0.00,0,Wunderground v.1.15,2013-03-11 11:10:00,
2013-03-11 01:15:00,64.2,62.1,30.06,WSW,242,1.0,2.0,93,0.00,,,0.00,0,Wunderground v.1.15,2013-03-11 11:15:00,
2013-03-11 01:20:00,64.3,62.2,30.06,WSW,243,2.0,5.0,93,0.00,,,0.00,0,Wunderground v.1.15,2013-03-11 11:20:00,
2013-03-11 01:30:00,64.6,62.2,30.06,WSW,243,2.0,2.0,92,0.00,,,0.00,0,Wunderground v.1.15,2013-03-11 11:30:00,
2013-03-11 01:35:00,64.5,62.1,30.06,WSW,243,1.0,2.0,92,0.00,,,0.00,0,Wunderground v.1.15,2013-03-11 11:35:00,
2013-03-11 01:40:00,64.5,62.1,30.06,WSW,243,1.0,1.0,92,0.00,,,0.00,0,Wunderground v.1.15,2013-03-11 11:40:00,
2013-03-11 01:45:00,64.5,62.1,30.05,WSW,243,1.0,2.0,92,0.00,,,0.00,0,Wunderground v.1.15,2013-03-11 11:45:00,
2013-03-11 01:50:00,64.5,62.1,30.05,WSW,243,1.0,1.0,92,0.00,,,0.00,0,Wunderground v.1.15,2013-03-11 11:50:00,
2013-03-11 02:00:00,64.4,62.3,30.05,WSW,243,1.0,1.0,93,0.00,,,0.00,0,Wunderground v.1.15,2013-03-11 12:00:00,
2013-03-11 02:10:00,64.5,62.4,30.04,WSW,243,0.0,3.0,93,0.00,,,0.00,0,Wunderground v.1.15,2013-03-11 12:10:00,
2013-03-11 02:15:00,64.6,62.5,30.04,WSW,243,1.0,3.0,93,0.00,,,0.00,0,Wunderground v.1.15,2013-03-11 12:15:00,
2013-03-11 02:20:00,64.8,62.7,30.04,WSW,243,2.0,2.0,93,0.00,,,0.00,0,Wunderground v.1.15,2013-03-11 12:20:00,
2013-03-11 02:25:00,65.1,62.7,30.04,WSW,243,2.0,2.0,92,0.00,,,0.00,0,Wunderground v.1.15,2013-03-11 12:25:00,
2013-03-11 02:35:00,65.4,62.7,30.03,WSW,243,2.0,2.0,91,0.00,,,0.00,0,Wunderground v.1.15,2013-03-11 12:35:00,
2013-03-11 02:40:00,65.4,62.7,30.03,WSW,243,2.0,2.0,91,0.00,,,0.00,0,Wunderground v.1.15,2013-03-11 12:40:00,
2013-03-11 02:45:00,65.4,62.4,30.03,WSW,243,2.0,2.0,90,0.00,,,0.00,0,Wunderground v.1.15,2013-03-11 12:45:00,
2013-03-11 02:55:00,65.6,62.6,30.03,WSW,243,3.0,3.0,90,0.00,,,0.00,0,Wunderground v.1.15,2013-03-11 12:55:00,
2013-03-11 03:00:00,65.8,62.5,30.03,WSW,243,3.0,3.0,89,0.00,,,0.00,0,Wunderground v.1.15,2013-03-11 13:00:00,
2013-03-11 03:10:00,65.4,61.8,30.02,WSW,243,1.0,4.0,88,0.00,,,0.00,0,Wunderground v.1.15,2013-03-11 13:10:00,
2013-03-11 03:15:00,65.6,61.0,30.02,WSW,243,3.0,5.0,85,0.00,,,0.00,0,Wunderground v.1.15,2013-03-11 13:15:00,
2013-03-11 03:20:00,66.0,60.7,30.02,WSW,243,5.0,5.0,83,0.00,,,0.00,0,Wunderground v.1.15,2013-03-11 13:20:00,
2013-03-11 03:30:00,66.6,60.6,30.02,NW,320,6.0,6.0,81,0.00,,,0.00,0,Wunderground v.1.15,2013-03-11 13:30:00,
2013-03-11 03:35:00,66.8,60.8,30.02,NW,313,5.0,9.0,81,0.00,,,0.00,0,Wunderground v.1.15,2013-03-11 13:35:00,
2013-03-11 03:40:00,66.9,60.9,30.01,NW,321,5.0,9.0,81,0.00,,,0.00,0,Wunderground v.1.15,2013-03-11 13:40:00,
2013-03-11 03:50:00,66.9,60.5,30.01,NW,306,5.0,5.0,80,0.00,,,0.00,0,Wunderground v.1.15,2013-03-11 13:50:00,
2013-03-11 03:55:00,66.8,60.1,30.02,NNW,331,5.0,5.0,79,0.00,,,0.00,0,Wunderground v.1.15,2013-03-11 13:55:00,
2013-03-11 04:00:00,66.7,60.0,30.02,NNW,336,5.0,5.0,79,0.00,,,0.00,0,Wunderground v.1.15,2013-03-11 14:00:00,
2013-03-11 04:10:00,66.5,59.8,30.02,NW,313,4.0,5.0,79,0.00,,,0.00,0,Wunderground v.1.15,2013-03-11 14:10:00,
2013-03-11 04:15:00,66.4,59.7,30.02,WNW,302,4.0,5.0,79,0.00,,,0.00,0,Wunderground v.1.15,2013-03-11 14:15:00,
2013-03-11 04:20:00,66.3,59.6,30.01,NW,304,3.0,3.0,79,0.00,,,0.00,0,Wunderground v.1.15,2013-03-11 14:20:00,
2013-03-11 04:30:00,66.0,59.7,30.01,NW,323,3.0,3.0,80,0.00,,,0.00,0,Wunderground v.1.15,2013-03-11 14:30:00,
2013-03-11 04:35:00,65.9,59.6,30.01,NW,323,2.0,3.0,80,0.00,,,0.00,0,Wunderground v.1.15,2013-03-11 14:35:00,
2013-03-11 04:40:00,65.8,59.5,30.01,NW,322,1.0,3.0,80,0.00,,,0.00,0,Wunderground v.1.15,2013-03-11 14:40:00,
2013-03-11 04:45:00,65.7,59.4,30.02,NW,322,2.0,3.0,80,0.00,,,0.00,0,Wunderground v.1.15,2013-03-11 14:45:00,
2013-03-11 04:55:00,65.7,59.7,30.02,NW,322,3.0,5.0,81,0.00,,,0.00,0,Wunderground v.1.15,2013-03-11 14:55:00,
2013-03-11 05:00:00,65.6,59.3,30.02,NW,322,2.0,2.0,80,0.00,,,0.00,0,Wunderground v.1.15,2013-03-11 15:00:00,
2013-03-11 05:10:00,65.2,59.2,30.02,NW,323,1.0,9.0,81,0.00,,,0.00,0,Wunderground v.1.15,2013-03-11 15:10:00,
2013-03-11 05:15:00,65.3,59.0,30.02,NW,323,3.0,9.0,80,0.00,,,0.00,0,Wunderground v.1.15,2013-03-11 15:15:00,
2013-03-11 05:25:00,65.2,59.2,30.02,NW,314,4.0,4.0,81,0.00,,,0.00,0,Wunderground v.1.15,2013-03-11 15:25:00,
2013-03-11 05:30:00,64.9,59.3,30.02,NW,325,3.0,5.0,82,0.00,,,0.00,0,Wunderground v.1.15,2013-03-11 15:30:00,
2013-03-11 05:35:00,64.4,59.1,30.02,NW,326,3.0,5.0,83,0.00,,,0.00,0,Wunderground v.1.15,2013-03-11 15:35:00,
2013-03-11 05:45:00,64.8,59.2,30.02,NNW,329,4.0,5.0,82,0.00,,,0.00,0,Wunderground v.1.15,2013-03-11 15:45:00,
2013-03-11 05:50:00,65.1,59.1,30.03,NW,323,4.0,4.0,81,0.00,,,0.00,0,Wunderground v.1.15,2013-03-11 15:50:00,
2013-03-11 05:55:00,65.2,59.2,30.03,NW,325,3.0,4.0,81,0.00,,,0.00,0,Wunderground v.1.15,2013-03-11 15:55:00,
2013-03-11 06:00:00,65.1,59.5,30.03,NW,323,3.0,3.0,82,0.00,,,0.00,0,Wunderground v.1.15,2013-03-11 16:00:00,
2013-03-11 06:10:00,64.4,59.5,30.03,NW,323,2.0,2.0,84,0.00,,,0.00,0,Wunderground v.1.15,2013-03-11 16:10:00,
2013-03-11 06:20:00,63.7,59.1,30.04,NW,323,1.0,1.0,85,0.00,,,0.00,0,Wunderground v.1.15,2013-03-11 16:20:00,
2013-03-11 06:25:00,63.1,58.8,30.04,NW,323,0.0,1.0,86,0.00,,,0.00,0,Wunderground v.1.15,2013-03-11 16:25:00,
2013-03-11 06:30:00,62.8,58.9,30.04,NW,323,1.0,2.0,87,0.00,,,0.00,0,Wunderground v.1.15,2013-03-11 16:30:00,
2013-03-11 06:35:00,63.4,59.1,30.05,NW,323,3.0,3.0,86,0.00,,,0.00,5,Wunderground v.1.15,2013-03-11 16:35:00,
2013-03-11 06:45:00,64.0,59.4,30.05,NW,323,2.0,3.0,85,0.00,,,0.00,12,Wunderground v.1.15,2013-03-11 16:45:00,
2013-03-11 06:50:00,64.4,59.5,30.06,NW,323,1.0,1.0,84,0.00,,,0.00,18,Wunderground v.1.15,2013-03-11 16:50:00,
2013-03-11 06:55:00,64.5,59.6,30.06,NW,323,1.0,3.0,84,0.00,,,0.00,23,Wunderground v.1.15,2013-03-11 16:55:00,
2013-03-11 07:00:00,65.0,59.7,30.06,NW,323,1.0,2.0,83,0.00,,,0.00,32,Wunderground v.1.15,2013-03-11 17:00:00,
2013-03-11 07:10:00,65.7,60.1,30.07,NW,323,2.0,2.0,82,0.00,,,0.00,58,Wunderground v.1.15,2013-03-11 17:10:00,
2013-03-11 07:15:00,66.3,60.6,30.07,NW,323,1.0,2.0,82,0.00,,,0.00,76,Wunderground v.1.15,2013-03-11 17:15:00,
2013-03-11 07:20:00,67.0,61.3,30.07,NW,323,1.0,1.0,82,0.00,,,0.00,100,Wunderground v.1.15,2013-03-11 17:20:00,
2013-03-11 07:25:00,67.5,61.8,30.07,NW,323,0.0,1.0,82,0.00,,,0.00,125,Wunderground v.1.15,2013-03-11 17:25:00,
2013-03-11 07:30:00,68.1,62.7,30.07,NW,323,0.0,0.0,83,0.00,,,0.00,144,Wunderground v.1.15,2013-03-11 17:30:00,
2013-03-11 07:40:00,69.1,64.1,30.08,NW,323,0.0,0.0,84,0.00,,,0.00,188,Wunderground v.1.15,2013-03-11 17:40:00,
2013-03-11 07:45:00,69.7,65.0,30.08,NW,323,0.0,0.0,85,0.00,,,0.00,213,Wunderground v.1.15,2013-03-11 17:45:00,
2013-03-11 07:50:00,70.4,65.3,30.08,NW,323,0.0,0.0,84,0.00,,,0.00,134,Wunderground v.1.15,2013-03-11 17:50:00,
2013-03-11 07:55:00,70.9,65.1,30.08,NW,323,0.0,0.0,82,0.00,,,0.00,255,Wunderground v.1.15,2013-03-11 17:55:00,
2013-03-11 08:00:00,71.5,65.0,30.08,NW,323,0.0,0.0,80,0.00,,,0.00,274,Wunderground v.1.15,2013-03-11 18:00:00,
2013-03-11 08:10:00,72.8,64.8,30.07,NW,323,1.0,1.0,76,0.00,,,0.00,251,Wunderground v.1.15,2013-03-11 18:10:00,
2013-03-11 08:15:00,73.3,64.9,30.08,NW,323,1.0,1.0,75,0.00,,,0.00,339,Wunderground v.1.15,2013-03-11 18:15:00,
2013-03-11 08:20:00,73.7,64.9,30.08,NW,323,0.0,0.0,74,0.00,,,0.00,424,Wunderground v.1.15,2013-03-11 18:20:00,
2013-03-11 08:25:00,74.0,65.6,30.08,NW,323,0.0,0.0,75,0.00,,,0.00,431,Wunderground v.1.15,2013-03-11 18:25:00,
2013-03-11 08:35:00,74.8,65.6,30.09,NW,323,0.0,1.0,73,0.00,,,0.00,461,Wunderground v.1.15,2013-03-11 18:35:00,
2013-03-11 08:40:00,75.0,66.1,30.09,NW,322,1.0,1.0,74,0.00,,,0.00,445,Wunderground v.1.15,2013-03-11 18:40:00,
2013-03-11 08:50:00,75.6,66.7,30.09,NW,323,2.0,2.0,74,0.00,,,0.00,466,Wunderground v.1.15,2013-03-11 18:50:00,
2013-03-11 08:55:00,75.8,67.3,30.09,NW,323,1.0,2.0,75,0.00,,,0.00,485,Wunderground v.1.15,2013-03-11 18:55:00,
2013-03-11 09:00:00,75.9,67.4,30.09,NW,323,1.0,2.0,75,0.00,,,0.00,515,Wunderground v.1.15,2013-03-11 19:00:00,
2013-03-11 09:10:00,76.0,67.1,30.10,SSE,160,3.0,5.0,74,0.00,,,0.00,548,Wunderground v.1.15,2013-03-11 19:10:00,
2013-03-11 09:15:00,76.2,66.9,30.10,SSE,155,3.0,5.0,73,0.00,,,0.00,568,Wunderground v.1.15,2013-03-11 19:15:00,
2013-03-11 09:25:00,76.0,66.3,30.10,SSE,155,4.0,4.0,72,0.00,,,0.00,599,Wunderground v.1.15,2013-03-11 19:25:00,
2013-03-11 09:30:00,76.0,67.1,30.10,SSE,154,3.0,4.0,74,0.00,,,0.00,619,Wunderground v.1.15,2013-03-11 19:30:00,
2013-03-11 09:35:00,76.2,67.7,30.09,SSE,147,2.0,4.0,75,0.00,,,0.00,636,Wunderground v.1.15,2013-03-11 19:35:00,
2013-03-11 09:40:00,76.1,67.2,30.10,SSW,211,2.0,2.0,74,0.00,,,0.00,656,Wunderground v.1.15,2013-03-11 19:40:00,
2013-03-11 09:50:00,76.8,68.7,30.10,SSW,198,2.0,2.0,76,0.00,,,0.00,682,Wunderground v.1.15,2013-03-11 19:50:00,
2013-03-11 09:55:00,76.9,68.4,30.10,South,169,2.0,2.0,75,0.00,,,0.00,701,Wunderground v.1.15,2013-03-11 19:55:00,
2013-03-11 10:00:00,76.8,68.7,30.10,SSE,157,3.0,3.0,76,0.00,,,0.00,722,Wunderground v.1.15,2013-03-11 20:00:00,
2013-03-11 10:10:00,76.4,69.4,30.10,SSE,158,4.0,6.0,79,0.00,,,0.00,759,Wunderground v.1.15,2013-03-11 20:10:00,
2013-03-11 10:20:00,76.4,69.8,30.10,SE,141,4.0,6.0,80,0.00,,,0.00,807,Wunderground v.1.15,2013-03-11 20:20:00,
2013-03-11 10:25:00,76.3,69.3,30.10,SE,132,5.0,6.0,79,0.00,,,0.00,923,Wunderground v.1.15,2013-03-11 20:25:00,
2013-03-11 10:35:00,75.8,69.9,30.09,SW,219,5.0,6.0,82,0.00,,,0.00,1148,Wunderground v.1.15,2013-03-11 20:35:00,
2013-03-11 10:40:00,76.2,70.3,30.09,SE,143,6.0,6.0,82,0.00,,,0.00,1143,Wunderground v.1.15,2013-03-11 20:40:00,
2013-03-11 10:45:00,76.5,70.2,30.09,SE,134,5.0,6.0,81,0.00,,,0.00,573,Wunderground v.1.15,2013-03-11 20:45:00,
2013-03-11 10:50:00,76.3,69.7,30.09,SSW,203,4.0,4.0,80,0.00,,,0.00,504,Wunderground v.1.15,2013-03-11 20:50:00,
2013-03-11 11:00:00,76.4,70.5,30.09,South,176,3.0,3.0,82,0.00,,,0.00,1027,Wunderground v.1.15,2013-03-11 21:00:00,
2013-03-11 11:10:00,76.4,70.9,30.08,SSE,159,6.0,6.0,83,0.00,,,0.00,1032,Wunderground v.1.15,2013-03-11 21:10:00,
2013-03-11 11:15:00,76.6,70.7,30.08,SSE,151,5.0,6.0,82,0.00,,,0.00,1074,Wunderground v.1.15,2013-03-11 21:15:00,
2013-03-11 11:20:00,76.8,70.2,30.08,SSE,156,5.0,5.0,80,0.00,,,0.00,408,Wunderground v.1.15,2013-03-11 21:20:00,
2013-03-11 11:25:00,76.7,71.1,30.08,SSE,148,4.0,10.0,83,0.00,,,0.00,1164,Wunderground v.1.15,2013-03-11 21:25:00,
2013-03-11 11:30:00,76.5,70.9,30.07,SSE,153,4.0,4.0,83,0.00,,,0.00,628,Wunderground v.1.15,2013-03-11 21:30:00,
2013-03-11 11:35:00,76.9,71.7,30.07,SE,143,3.0,6.0,84,0.00,,,0.00,1194,Wunderground v.1.15,2013-03-11 21:35:00,
2013-03-11 11:40:00,76.8,70.2,30.07,SE,140,3.0,3.0,80,0.00,,,0.00,360,Wunderground v.1.15,2013-03-11 21:40:00,
2013-03-11 11:45:00,77.0,70.7,30.07,SSE,154,4.0,4.0,81,0.00,,,0.00,708,Wunderground v.1.15,2013-03-11 21:45:00,
2013-03-11 11:50:00,76.9,71.3,30.07,SSE,155,4.0,4.0,83,0.00,,,0.00,1259,Wunderground v.1.15,2013-03-11 21:50:00,
2013-03-11 12:00:00,77.0,71.1,30.06,SE,142,5.0,6.0,82,0.00,,,0.00,450,Wunderground v.1.15,2013-03-11 22:00:00,
2013-03-11 12:10:00,76.8,71.6,30.05,SSE,151,5.0,5.0,84,0.00,,,0.00,1199,Wunderground v.1.15,2013-03-11 22:10:00,
2013-03-11 12:15:00,77.0,72.1,30.06,SW,214,6.0,6.0,85,0.00,,,0.00,1280,Wunderground v.1.15,2013-03-11 22:15:00,
2013-03-11 12:20:00,76.8,71.2,30.05,SSE,151,6.0,6.0,83,0.00,,,0.00,1288,Wunderground v.1.15,2013-03-11 22:20:00,
2013-03-11 12:30:00,77.1,71.5,30.05,SSE,161,6.0,6.0,83,0.00,,,0.00,1238,Wunderground v.1.15,2013-03-11 22:30:00,
2013-03-11 12:35:00,77.6,71.7,30.05,SE,140,5.0,9.0,82,0.00,,,0.00,424,Wunderground v.1.15,2013-03-11 22:35:00,
2013-03-11 12:40:00,77.1,71.5,30.04,SSE,154,6.0,6.0,83,0.00,,,0.00,1350,Wunderground v.1.15,2013-03-11 22:40:00,
2013-03-11 12:45:00,76.8,70.9,30.04,SSE,148,7.0,11.0,82,0.00,,,0.00,371,Wunderground v.1.15,2013-03-11 22:45:00,
2013-03-11 12:50:00,76.3,71.5,30.04,SSE,154,7.0,7.0,85,0.00,,,0.00,418,Wunderground v.1.15,2013-03-11 22:50:00,
2013-03-11 12:55:00,76.4,71.6,30.04,SSE,155,6.0,7.0,85,0.00,,,0.00,399,Wunderground v.1.15,2013-03-11 22:55:00,
2013-03-11 13:00:00,76.6,72.4,30.04,SSE,161,4.0,4.0,87,0.00,,,0.00,1339,Wunderground v.1.15,2013-03-11 23:00:00,
2013-03-11 13:10:00,76.8,71.2,30.04,South,170,5.0,6.0,83,0.00,,,0.00,350,Wunderground v.1.15,2013-03-11 23:10:00,
2013-03-11 13:15:00,76.5,70.6,30.03,SSE,155,5.0,6.0,82,0.00,,,0.00,385,Wunderground v.1.15,2013-03-11 23:15:00,
2013-03-11 13:25:00,76.7,71.1,30.03,SSE,148,5.0,5.0,83,0.00,,,0.00,304,Wunderground v.1.15,2013-03-11 23:25:00,
2013-03-11 13:30:00,76.8,71.2,30.03,SSE,159,5.0,9.0,83,0.00,,,0.00,336,Wunderground v.1.15,2013-03-11 23:30:00,
2013-03-11 13:35:00,76.5,70.9,30.02,SE,134,6.0,12.0,83,0.00,,,0.00,1153,Wunderground v.1.15,2013-03-11 23:35:00,
2013-03-11 13:45:00,76.2,71.0,30.02,SSW,213,7.0,9.0,84,0.00,,,0.00,359,Wunderground v.1.15,2013-03-11 23:45:00,
2013-03-11 13:50:00,76.2,70.7,30.02,SE,142,7.0,7.0,83,0.00,,,0.00,348,Wunderground v.1.15,2013-03-11 23:50:00,
2013-03-11 13:55:00,76.2,70.3,30.02,South,176,6.0,7.0,82,0.00,,,0.00,362,Wunderground v.1.15,2013-03-11 23:55:00,
2013-03-11 14:00:00,76.3,69.7,30.01,South,184,6.0,6.0,80,0.00,,,0.00,295,Wunderground v.1.15,2013-03-12 00:00:00,
2013-03-11 14:10:00,76.0,70.5,30.01,SE,137,5.0,10.0,83,0.00,,,0.00,325,Wunderground v.1.15,2013-03-12 00:10:00,
2013-03-11 14:15:00,75.7,70.9,30.01,SSE,160,6.0,10.0,85,0.00,,,0.00,274,Wunderground v.1.15,2013-03-12 00:15:00,
2013-03-11 14:25:00,75.8,70.6,30.01,SSE,167,5.0,5.0,84,0.00,,,0.00,399,Wunderground v.1.15,2013-03-12 00:25:00,
2013-03-11 14:30:00,75.5,70.7,30.01,South,188,7.0,7.0,85,0.00,,,0.00,455,Wunderground v.1.15,2013-03-12 00:30:00,
2013-03-11 14:40:00,75.6,70.8,30.00,South,176,5.0,5.0,85,0.00,,,0.00,274,Wunderground v.1.15,2013-03-12 00:40:00,
2013-03-11 14:45:00,75.4,70.9,30.00,SSE,159,4.0,8.0,86,0.00,,,0.00,214,Wunderground v.1.15,2013-03-12 00:45:00,
2013-03-11 14:50:00,75.0,70.2,30.01,SSW,212,5.0,5.0,85,0.00,,,0.00,279,Wunderground v.1.15,2013-03-12 00:50:00,
2013-03-11 14:55:00,74.6,70.5,30.00,SSW,213,6.0,9.0,87,0.00,,,0.00,381,Wunderground v.1.15,2013-03-12 00:55:00,
2013-03-11 15:00:00,74.5,70.7,30.00,SSW,192,6.0,6.0,88,0.00,,,0.00,294,Wunderground v.1.15,2013-03-12 01:00:00,
2013-03-11 15:10:00,74.6,70.5,30.00,SSW,208,4.0,4.0,87,0.00,,,0.00,336,Wunderground v.1.15,2013-03-12 01:10:00,
2013-03-11 15:15:00,74.3,69.8,30.01,SSW,208,4.0,4.0,86,0.00,,,0.00,288,Wunderground v.1.15,2013-03-12 01:15:00,
2013-03-11 15:25:00,74.3,70.8,30.00,South,182,4.0,7.0,89,0.00,,,0.00,218,Wunderground v.1.15,2013-03-12 01:25:00,
2013-03-11 15:35:00,74.3,70.8,30.00,SSE,157,3.0,4.0,89,0.00,,,0.00,260,Wunderground v.1.15,2013-03-12 01:35:00,
2013-03-11 15:40:00,74.3,70.5,30.00,SE,136,4.0,4.0,88,0.00,,,0.00,223,Wunderground v.1.15,2013-03-12 01:40:00,
2013-03-11 15:45:00,74.3,70.8,30.00,SE,142,5.0,5.0,89,0.00,,,0.00,181,Wunderground v.1.15,2013-03-12 01:45:00,
2013-03-11 15:50:00,74.3,70.8,30.00,South,169,4.0,6.0,89,0.00,,,0.00,118,Wunderground v.1.15,2013-03-12 01:50:00,
2013-03-11 16:00:00,74.2,71.1,30.00,SSE,158,4.0,4.0,90,0.00,,,0.00,158,Wunderground v.1.15,2013-03-12 02:00:00,
2013-03-11 16:10:00,73.7,70.9,30.00,SSW,192,6.0,6.0,91,0.00,,,0.00,160,Wunderground v.1.15,2013-03-12 02:10:00,
2013-03-11 16:15:00,73.6,70.8,30.00,SSW,198,5.0,6.0,91,0.00,,,0.00,139,Wunderground v.1.15,2013-03-12 02:15:00,
2013-03-11 16:20:00,73.7,71.2,30.00,South,186,4.0,4.0,92,0.00,,,0.00,100,Wunderground v.1.15,2013-03-12 02:20:00,
2013-03-11 16:25:00,73.6,71.1,30.00,SSE,150,4.0,5.0,92,0.00,,,0.00,63,Wunderground v.1.15,2013-03-12 02:25:00,
2013-03-11 16:30:00,73.5,71.0,30.00,SW,220,3.0,3.0,92,0.00,,,0.00,74,Wunderground v.1.15,2013-03-12 02:30:00,
2013-03-11 16:35:00,73.4,70.9,30.00,SSE,167,4.0,5.0,92,0.00,,,0.00,84,Wunderground v.1.15,2013-03-12 02:35:00,
2013-03-11 16:40:00,73.2,71.1,30.01,South,180,4.0,5.0,93,0.00,,,0.00,60,Wunderground v.1.15,2013-03-12 02:40:00,
2013-03-11 16:50:00,72.9,71.1,30.00,SSW,201,4.0,5.0,94,0.00,,,0.00,70,Wunderground v.1.15,2013-03-12 02:50:00,
2013-03-11 16:55:00,72.7,70.9,30.01,SSW,196,5.0,5.0,94,0.00,,,0.00,46,Wunderground v.1.15,2013-03-12 02:55:00,
2013-03-11 17:00:00,72.3,70.8,30.01,SSW,211,5.0,5.0,95,0.00,,,0.01,39,Wunderground v.1.15,2013-03-12 03:00:00,
2013-03-11 17:10:00,71.8,70.9,30.01,SSW,211,3.0,3.0,97,0.17,,,0.02,56,Wunderground v.1.15,2013-03-12 03:10:00,
2013-03-11 17:15:00,71.4,70.5,30.01,SW,233,4.0,6.0,97,0.11,,,0.03,62,Wunderground v.1.15,2013-03-12 03:15:00,
2013-03-11 17:20:00,70.7,69.8,30.01,West,273,5.0,5.0,97,0.15,,,0.05,14,Wunderground v.1.15,2013-03-12 03:20:00,
2013-03-11 17:25:00,69.9,68.7,30.01,WNW,288,5.0,5.0,96,0.14,,,0.06,19,Wunderground v.1.15,2013-03-12 03:25:00,
2013-03-11 17:30:00,69.4,68.2,30.02,WNW,290,5.0,5.0,96,0.11,,,0.06,37,Wunderground v.1.15,2013-03-12 03:30:00,
2013-03-11 17:40:00,68.8,67.6,30.01,NW,304,3.0,3.0,96,0.04,,,0.06,49,Wunderground v.1.15,2013-03-12 03:40:00,
2013-03-11 17:45:00,68.6,67.4,30.01,WNW,302,3.0,4.0,96,0.00,,,0.06,40,Wunderground v.1.15,2013-03-12 03:45:00,
2013-03-11 17:50:00,68.5,67.3,30.02,WNW,294,3.0,5.0,96,0.00,,,0.06,32,Wunderground v.1.15,2013-03-12 03:50:00,
2013-03-11 18:00:00,68.5,66.4,30.02,WNW,298,3.0,3.0,93,0.00,,,0.06,23,Wunderground v.1.15,2013-03-12 04:00:00,
2013-03-11 18:05:00,68.7,66.6,30.02,WNW,298,2.0,3.0,93,0.00,,,0.06,14,Wunderground v.1.15,2013-03-12 04:05:00,
2013-03-11 18:10:00,68.8,67.0,30.02,WNW,298,0.0,0.0,94,0.00,,,0.06,11,Wunderground v.1.15,2013-03-12 04:10:00,
2013-03-11 18:15:00,68.6,66.8,30.02,WNW,298,0.0,2.0,94,0.00,,,0.06,9,Wunderground v.1.15,2013-03-12 04:15:00,
2013-03-11 18:20:00,68.4,66.6,30.02,WNW,298,1.0,1.0,94,0.00,,,0.06,5,Wunderground v.1.15,2013-03-12 04:20:00,
2013-03-11 18:25:00,68.4,66.9,30.03,WNW,298,1.0,2.0,95,0.00,,,0.06,0,Wunderground v.1.15,2013-03-12 04:25:00,
2013-03-11 18:30:00,68.2,67.0,30.03,WNW,298,1.0,3.0,96,0.00,,,0.06,0,Wunderground v.1.15,2013-03-12 04:30:00,
2013-03-11 18:35:00,68.0,66.8,30.03,WNW,303,2.0,4.0,96,0.00,,,0.06,0,Wunderground v.1.15,2013-03-12 04:35:00,
2013-03-11 18:45:00,67.5,66.6,30.03,NW,304,2.0,3.0,97,0.00,,,0.06,0,Wunderground v.1.15,2013-03-12 04:45:00,
2013-03-11 18:50:00,67.5,66.6,30.03,NW,304,2.0,2.0,97,0.00,,,0.06,0,Wunderground v.1.15,2013-03-12 04:50:00,
2013-03-11 18:55:00,67.4,66.8,30.03,NW,304,2.0,2.0,98,0.00,,,0.06,0,Wunderground v.1.15,2013-03-12 04:55:00,
2013-03-11 19:00:00,67.4,66.8,30.03,NW,304,3.0,4.0,98,0.00,,,0.06,0,Wunderground v.1.15,2013-03-12 05:00:00,
2013-03-11 19:10:00,67.4,66.8,30.04,NW,304,2.0,2.0,98,0.00,,,0.06,0,Wunderground v.1.15,2013-03-12 05:10:00,
2013-03-11 19:15:00,67.3,66.4,30.05,NW,304,1.0,2.0,97,0.00,,,0.06,0,Wunderground v.1.15,2013-03-12 05:15:00,
2013-03-11 19:20:00,67.4,66.5,30.05,NW,304,2.0,2.0,97,0.00,,,0.06,0,Wunderground v.1.15,2013-03-12 05:20:00,
2013-03-11 19:25:00,67.4,66.5,30.06,NW,304,1.0,2.0,97,0.00,,,0.06,0,Wunderground v.1.15,2013-03-12 05:25:00,
2013-03-11 19:35:00,67.2,66.6,30.06,NW,304,1.0,3.0,98,0.00,,,0.06,0,Wunderground v.1.15,2013-03-12 05:35:00,
2013-03-11 19:40:00,67.0,66.4,30.05,NW,305,2.0,4.0,98,0.00,,,0.06,0,Wunderground v.1.15,2013-03-12 05:40:00,
2013-03-11 19:45:00,66.9,66.3,30.05,NW,305,3.0,4.0,98,0.00,,,0.06,0,Wunderground v.1.15,2013-03-12 05:45:00,
2013-03-11 19:50:00,66.9,66.3,30.05,NW,305,2.0,2.0,98,0.00,,,0.06,0,Wunderground v.1.15,2013-03-12 05:50:00,
2013-03-11 19:55:00,66.9,66.3,30.05,NW,305,1.0,2.0,98,0.00,,,0.06,0,Wunderground v.1.15,2013-03-12 05:55:00,
2013-03-11 20:00:00,66.9,66.3,30.06,NW,305,2.0,2.0,98,0.00,,,0.06,0,Wunderground v.1.15,2013-03-12 06:00:00,
2013-03-11 20:10:00,66.9,66.3,30.06,NW,305,1.0,1.0,98,0.00,,,0.06,0,Wunderground v.1.15,2013-03-12 06:10:00,
2013-03-11 20:15:00,66.9,66.6,30.06,NW,305,0.0,1.0,99,0.00,,,0.06,0,Wunderground v.1.15,2013-03-12 06:15:00,
2013-03-11 20:25:00,66.9,66.6,30.07,NW,305,1.0,2.0,99,0.00,,,0.06,0,Wunderground v.1.15,2013-03-12 06:25:00,
2013-03-11 20:30:00,66.9,66.6,30.08,NW,305,1.0,1.0,99,0.00,,,0.06,0,Wunderground v.1.15,2013-03-12 06:30:00,
2013-03-11 20:35:00,67.0,66.7,30.08,NW,305,1.0,1.0,99,0.00,,,0.06,0,Wunderground v.1.15,2013-03-12 06:35:00,
2013-03-11 20:40:00,67.0,66.7,30.08,NW,305,0.0,0.0,99,0.00,,,0.06,0,Wunderground v.1.15,2013-03-12 06:40:00,
2013-03-11 20:50:00,67.1,67.1,30.08,NW,305,0.0,0.0,100,0.00,,,0.06,0,Wunderground v.1.15,2013-03-12 06:50:00,
2013-03-11 20:55:00,67.1,67.1,30.09,NW,305,0.0,3.0,100,0.00,,,0.06,0,Wunderground v.1.15,2013-03-12 06:55:00,
2013-03-11 21:00:00,67.2,67.2,30.09,NW,305,1.0,1.0,100,0.00,,,0.06,0,Wunderground v.1.15,2013-03-12 07:00:00,
2013-03-11 21:10:00,67.3,67.0,30.09,NW,305,0.0,0.0,99,0.00,,,0.06,0,Wunderground v.1.15,2013-03-12 07:10:00,
2013-03-11 21:15:00,67.3,67.0,30.09,NW,305,0.0,0.0,99,0.00,,,0.06,0,Wunderground v.1.15,2013-03-12 07:15:00,
2013-03-11 21:25:00,67.4,67.1,30.09,NW,305,1.0,2.0,99,0.00,,,0.06,0,Wunderground v.1.15,2013-03-12 07:25:00,
2013-03-11 21:30:00,67.5,67.2,30.10,NW,305,2.0,2.0,99,0.00,,,0.06,0,Wunderground v.1.15,2013-03-12 07:30:00,
2013-03-11 21:35:00,67.6,67.3,30.09,NW,305,2.0,4.0,99,0.00,,,0.06,0,Wunderground v.1.15,2013-03-12 07:35:00,
2013-03-11 21:40:00,67.5,67.2,30.09,NW,305,3.0,3.0,99,0.00,,,0.06,0,Wunderground v.1.15,2013-03-12 07:40:00,
2013-03-11 21:50:00,67.6,67.3,30.09,NW,305,2.0,3.0,99,0.00,,,0.06,0,Wunderground v.1.15,2013-03-12 07:50:00,
2013-03-11 21:55:00,67.5,67.2,30.09,NW,305,3.0,3.0,99,0.00,,,0.06,0,Wunderground v.1.15,2013-03-12 07:55:00,
2013-03-11 22:00:00,67.4,67.1,30.09,NW,305,3.0,3.0,99,0.00,,,0.06,0,Wunderground v.1.15,2013-03-12 08:00:00,
2013-03-11 22:10:00,67.3,67.0,30.10,NW,306,0.0,0.0,99,0.00,,,0.06,0,Wunderground v.1.15,2013-03-12 08:10:00,
2013-03-11 22:15:00,67.1,66.8,30.11,NW,305,1.0,1.0,99,0.00,,,0.06,0,Wunderground v.1.15,2013-03-12 08:15:00,
2013-03-11 22:25:00,66.9,66.9,30.10,NW,306,1.0,1.0,100,0.00,,,0.06,0,Wunderground v.1.15,2013-03-12 08:25:00,
2013-03-11 22:35:00,66.7,66.4,30.10,NW,306,1.0,2.0,99,0.00,,,0.06,0,Wunderground v.1.15,2013-03-12 08:35:00,
2013-03-11 22:40:00,66.5,66.5,30.10,NW,306,1.0,2.0,100,0.00,,,0.06,0,Wunderground v.1.15,2013-03-12 08:40:00,
2013-03-11 22:45:00,66.4,66.4,30.09,NW,306,2.0,2.0,100,0.00,,,0.06,0,Wunderground v.1.15,2013-03-12 08:45:00,
2013-03-11 22:50:00,66.4,66.4,30.10,NW,306,3.0,3.0,100,0.00,,,0.06,0,Wunderground v.1.15,2013-03-12 08:50:00,
2013-03-11 22:55:00,66.6,66.6,30.09,NW,305,2.0,3.0,100,0.00,,,0.06,0,Wunderground v.1.15,2013-03-12 08:55:00,
2013-03-11 23:00:00,66.5,66.5,30.09,NW,306,2.0,2.0,100,0.00,,,0.06,0,Wunderground v.1.15,2013-03-12 09:00:00,
2013-03-11 23:10:00,66.5,66.5,30.09,NW,306,2.0,2.0,100,0.00,,,0.06,0,Wunderground v.1.15,2013-03-12 09:10:00,
2013-03-11 23:20:00,66.3,66.3,30.09,NW,306,0.0,0.0,100,0.00,,,0.06,0,Wunderground v.1.15,2013-03-12 09:20:00,
2013-03-11 23:25:00,66.1,66.1,30.08,NW,306,0.0,1.0,100,0.00,,,0.06,0,Wunderground v.1.15,2013-03-12 09:25:00,
2013-03-11 23:30:00,66.0,66.0,30.08,NW,306,0.0,4.0,100,0.00,,,0.06,0,Wunderground v.1.15,2013-03-12 09:30:00,
2013-03-11 23:35:00,65.9,65.9,30.08,NW,306,2.0,4.0,100,0.00,,,0.06,0,Wunderground v.1.15,2013-03-12 09:35:00,
2013-03-11 23:40:00,65.9,65.9,30.08,NW,306,3.0,3.0,100,0.00,,,0.06,0,Wunderground v.1.15,2013-03-12 09:40:00,
2013-03-11 23:45:00,65.9,65.9,30.08,NW,306,2.0,3.0,100,0.00,,,0.06,0,Wunderground v.1.15,2013-03-12 09:45:00,
2013-03-11 23:50:00,65.8,65.8,30.08,NW,306,2.0,2.0,100,0.00,,,0.06,0,Wunderground v.1.15,2013-03-12 09:50:00,